Time;durP1;ratioP1;P1;durP2;ratioP2;P2;SDS_P1;SDS_P2;PMS_P1;PMS_P2;Temp;Humidity;BMP_temperature;BMP_pressure;BME280_temperature;BME280_humidity;BME280_pressure;Samples;Min_cycle;Max_cycle;Signal;HPM_P1;HPM_P2
2022/04/25 00:32:44;;;;;;;52.10;28.90;;;;;;;6.75;82.31;97270.05;434787;1264;112389;-44
2022/04/25 00:42:51;;;;;;;44.30;27.50;;;;;;;6.76;82.26;97267.92;434848;1265;108243;-43
2022/04/25 00:52:57;;;;;;;40.80;28.20;;;;;;;6.68;82.10;97262.05;434898;1264;98049;-42
2022/04/25 01:03:05;;;;;;;48.70;29.60;;;;;;;6.62;82.06;97256.33;434973;1263;108859;-42
2022/04/25 01:13:13;;;;;;;46.60;28.80;;;;;;;6.68;82.26;97260.02;435013;1265;98000;-40
2022/04/25 01:33:46;;;;;;;82.40;40.00;;;;;;;6.55;82.29;97250.80;435270;1254;109258;-41
2022/04/25 01:43:53;;;;;;;52.70;32.60;;;;;;;6.45;82.17;97249.86;434377;1265;99271;-44
2022/04/25 01:54:00;;;;;;;42.50;26.30;;;;;;;6.45;82.24;97259.06;434313;1264;108698;-40
2022/04/25 02:04:07;;;;;;;40.40;26.50;;;;;;;6.41;82.20;97265.33;434186;1264;99345;-40
2022/04/25 02:14:14;;;;;;;36.70;25.90;;;;;;;6.34;82.22;97250.74;434246;1265;111428;-42
2022/04/25 02:24:20;;;;;;;33.00;23.90;;;;;;;6.13;82.02;97262.09;434263;1265;108867;-42
2022/04/25 02:44:35;;;;;;;51.00;31.80;;;;;;;5.76;81.99;97270.58;434331;1264;108934;-44
2022/04/25 02:54:43;;;;;;;59.00;32.70;;;;;;;5.40;82.22;97283.52;434393;1265;99350;-43
2022/04/25 03:04:51;;;;;;;33.60;23.00;;;;;;;5.14;81.97;97299.33;434271;1265;112521;-42
2022/04/25 03:14:58;;;;;;;36.50;24.10;;;;;;;4.79;81.87;97307.14;434350;1265;108851;-41
2022/04/25 03:25:06;;;;;;;39.40;26.20;;;;;;;4.64;82.03;97314.73;434135;1265;99333;-44
2022/04/25 03:35:13;;;;;;;39.90;24.70;;;;;;;4.50;81.91;97329.87;434234;1264;108800;-46
2022/04/25 03:45:21;;;;;;;33.90;23.60;;;;;;;4.49;82.19;97323.56;434268;1265;99187;-40
2022/04/25 04:16:00;;;;;;;72.90;43.20;;;;;;;4.81;82.44;97328.16;434345;1265;99266;-40
2022/04/25 04:26:08;;;;;;;46.10;29.40;;;;;;;5.37;82.31;97339.88;434256;1265;108819;-40
2022/04/25 04:36:18;;;;;;;53.70;37.50;;;;;;;6.59;82.33;97337.88;434155;1264;99260;-43
2022/04/25 04:46:25;;;;;;;81.50;42.20;;;;;;;6.74;82.20;97347.31;434325;1264;112434;-44
2022/04/25 04:56:34;;;;;;;85.50;40.60;;;;;;;7.24;82.68;97348.39;434183;1265;108964;-43
2022/04/25 05:06:41;;;;;;;56.50;37.00;;;;;;;8.74;82.40;97348.08;434218;1264;99268;-43
2022/04/25 05:16:48;;;;;;;78.90;48.60;;;;;;;8.47;81.02;97350.48;434340;1264;108900;-45
2022/04/25 05:26:55;;;;;;;51.60;34.10;;;;;;;7.84;80.71;97361.02;434312;1265;97953;-44
2022/04/25 05:37:03;;;;;;;58.50;38.80;;;;;;;8.11;81.27;97366.41;434162;1264;112419;-43
2022/04/25 05:47:08;;;;;;;64.80;40.70;;;;;;;9.18;80.99;97364.27;434223;1264;108840;-44
2022/04/25 05:57:16;;;;;;;62.60;39.30;;;;;;;8.86;80.34;97376.98;434164;1264;99263;-43
2022/04/25 06:07:23;;;;;;;69.10;44.80;;;;;;;9.41;80.36;97391.81;434272;1266;108823;-42
2022/04/25 06:17:31;;;;;;;65.50;42.10;;;;;;;10.65;80.42;97394.98;431804;1266;3243937;-41
2022/04/25 06:27:38;;;;;;;52.30;36.40;;;;;;;11.94;79.91;97398.10;434308;1266;112397;-44
2022/04/25 06:37:45;;;;;;;47.60;34.10;;;;;;;12.85;79.26;97401.29;434288;1267;108880;-41
2022/04/25 06:47:53;;;;;;;29.40;23.00;;;;;;;13.88;78.53;97397.09;434295;1267;98416;-42
2022/04/25 06:58:00;;;;;;;36.30;24.80;;;;;;;14.01;76.89;97403.77;434287;1263;108725;-44
2022/04/25 07:08:05;;;;;;;33.40;23.90;;;;;;;14.22;76.47;97407.38;434222;1264;98818;-41
2022/04/25 07:18:15;;;;;;;38.10;27.50;;;;;;;14.34;75.35;97410.46;434380;1265;112490;-43
2022/04/25 07:38:48;;;;;;;25.00;19.40;;;;;;;13.04;75.33;97424.71;434215;1264;98847;-45
2022/04/25 07:48:55;;;;;;;16.50;13.30;;;;;;;13.57;75.44;97432.80;434440;1267;109664;-44
2022/04/25 07:59:02;;;;;;;16.70;12.60;;;;;;;14.19;75.07;97433.64;434053;1265;99260;-44
2022/04/25 08:09:10;;;;;;;10.50;8.70;;;;;;;14.71;73.65;97432.74;434335;1265;112485;-42
2022/04/25 08:19:17;;;;;;;14.00;10.90;;;;;;;15.41;72.47;97435.57;434226;1262;108820;-45
2022/04/25 08:39:30;;;;;;;13.70;11.00;;;;;;;14.85;70.36;97454.82;434244;1264;108726;-44
2022/04/25 08:49:38;;;;;;;19.90;13.70;;;;;;;14.29;70.31;97467.61;434178;1264;99130;-40
2022/04/25 08:59:45;;;;;;;16.40;13.20;;;;;;;14.09;70.39;97473.55;434254;1265;112570;-45
2022/04/25 09:09:52;;;;;;;16.60;14.10;;;;;;;13.99;70.47;97479.53;434319;1265;108742;-45
2022/04/25 09:20:00;;;;;;;12.00;10.60;;;;;;;14.14;70.82;97481.95;434290;1265;99222;-41
2022/04/25 09:30:20;;;;;;;16.40;12.10;;;;;;;14.40;70.54;97484.64;434200;1265;108841;-41
2022/04/25 09:40:29;;;;;;;11.70;9.70;;;;;;;14.36;70.19;97486.53;434173;1264;99253;-43
2022/04/25 09:50:38;;;;;;;12.50;10.50;;;;;;;14.47;69.72;97491.39;434257;1265;112268;-45
2022/04/25 10:00:54;;;;;;;11.60;10.10;;;;;;;14.26;69.40;97504.23;434259;1265;109063;-45
2022/04/25 10:11:04;;;;;;;13.40;11.10;;;;;;;13.38;69.35;97514.23;434214;1264;98016;-41
2022/04/25 10:21:14;;;;;;;18.80;14.10;;;;;;;12.96;70.05;97519.41;434219;1267;108790;-46
2022/04/25 10:31:23;;;;;;;10.60;9.10;;;;;;;13.02;70.22;97526.83;434196;1267;98031;-44
2022/04/25 10:51:59;;;;;;;11.40;9.80;;;;;;;12.88;70.56;97534.95;434295;1267;106883;-41
2022/04/25 11:02:20;;;;;;;11.40;10.20;;;;;;;12.81;70.84;97539.48;434434;1266;99246;-45
2022/04/25 11:12:58;;;;;;;13.20;10.20;;;;;;;13.17;70.91;97541.73;434110;1267;108699;-44
2022/04/25 11:23:23;;;;;;;13.50;10.50;;;;;;;13.42;70.76;97558.99;434265;1265;98829;-40
2022/04/25 11:43:45;;;;;;;14.40;10.90;;;;;;;13.98;69.20;97569.21;434112;1265;108200;-43
2022/04/25 11:53:52;;;;;;;11.60;9.70;;;;;;;13.71;68.70;97579.38;434160;1265;99289;-42
2022/04/25 12:04:19;;;;;;;10.60;9.60;;;;;;;13.58;69.25;97587.21;434089;1264;108820;-42
2022/04/25 12:25:10;;;;;;;12.10;9.50;;;;;;;13.17;69.05;97601.52;434223;1264;112466;-40
2022/04/25 12:35:20;;;;;;;8.40;7.20;;;;;;;13.18;68.76;97600.98;434138;1265;110051;-41
2022/04/25 12:45:26;;;;;;;7.80;6.80;;;;;;;13.46;67.98;97604.81;434168;1264;99331;-41
2022/04/25 12:55:45;;;;;;;9.60;8.20;;;;;;;13.46;67.44;97615.17;434331;1264;108726;-46
2022/04/25 13:05:52;;;;;;;9.70;8.70;;;;;;;13.12;67.47;97625.20;434208;1265;99277;-43
2022/04/25 13:26:06;;;;;;;21.90;16.20;;;;;;;12.64;68.35;97649.05;434096;1265;108783;-45
2022/04/25 13:36:13;;;;;;;23.50;16.80;;;;;;;12.50;69.15;97653.63;434221;1265;98150;-43
2022/04/25 13:46:22;;;;;;;31.00;20.60;;;;;;;12.16;69.71;97666.31;434096;1265;108927;-41
2022/04/25 13:56:29;;;;;;;28.60;20.50;;;;;;;11.95;70.19;97673.05;434244;1265;99273;-41
2022/04/25 14:06:37;;;;;;;28.20;18.80;;;;;;;11.84;70.72;97683.63;434367;1264;112420;-42
2022/04/25 14:16:45;;;;;;;37.90;25.90;;;;;;;11.78;71.16;97699.02;434288;1265;108778;-46
2022/04/25 14:36:59;;;;;;;60.30;38.30;;;;;;;10.69;73.90;97734.80;434365;1265;109004;-43
2022/04/25 14:47:08;;;;;;;46.70;28.50;;;;;;;10.55;74.09;97741.66;434135;1265;99268;-43
2022/04/25 14:57:15;;;;;;;40.90;25.90;;;;;;;10.43;74.56;97756.04;434180;1265;111362;-45
2022/04/25 15:07:23;;;;;;;48.90;30.70;;;;;;;10.11;76.05;97766.94;434201;1265;108802;-45
2022/04/25 15:17:30;;;;;;;38.70;23.80;;;;;;;9.80;76.91;97782.25;434355;1265;99145;-42
2022/04/25 15:27:39;;;;;;;37.90;24.90;;;;;;;9.65;77.65;97792.28;434193;1265;108627;-40
2022/04/25 15:47:58;;;;;;;41.80;25.20;;;;;;;9.47;78.48;97818.60;434346;1267;112382;-45
2022/04/25 15:58:04;;;;;;;41.50;26.00;;;;;;;9.43;78.83;97829.67;434055;1267;108682;-42
2022/04/25 16:18:18;;;;;;;50.00;27.90;;;;;;;9.18;80.00;97841.89;434197;1267;108667;-43
2022/04/25 16:28:25;;;;;;;27.80;17.80;;;;;;;9.03;80.62;97848.46;434201;1267;98010;-44
2022/04/25 16:38:32;;;;;;;24.00;15.20;;;;;;;8.77;81.67;97864.94;434335;1266;112475;-41
2022/04/25 16:48:40;;;;;;;25.40;17.40;;;;;;;8.58;82.14;97878.86;434286;1265;108824;-41
2022/04/25 16:58:47;;;;;;;21.20;14.20;;;;;;;8.39;82.63;97895.09;434064;1268;99239;-40
2022/04/25 17:08:54;;;;;;;19.80;14.60;;;;;;;8.26;83.11;97920.83;434184;1267;108907;-41
